Terminal Aerodrome Forecast
Issued by NWS

Home | Current Version | Previous Version | Text Only | Print | Product List | Glossary On
Versions: 1 2 3 4 5 6 7 8 9 10 11 12 13 14 15 16
000
FTUS45 KTFX 311318 AAB
TAFLWT
TAF AMD
KLWT 311318Z 3113/0112 29015G25KT P6SM -SHRA SCT005 BKN015
      TEMPO 3113/3117 2SM -RA BR OVC005
     FM311700 30015G25KT P6SM VCSH BKN040 BKN070
     FM312000 31013G21KT P6SM BKN090
     FM010000 28007KT P6SM FEW120=

USA.gov is the U.S. government's official web portal to all federal, state and local government web resources and services.